sensor_id;sensor_type;location;lat;lon;timestamp;temperature;humidity
59533;DHT22;45351;53.596;10.000;2022-07-29T00:00:08;23.20;48.10
59533;DHT22;45351;53.596;10.000;2022-07-29T00:02:35;23.20;47.60
59533;DHT22;45351;53.596;10.000;2022-07-29T00:05:03;23.20;47.80
59533;DHT22;45351;53.596;10.000;2022-07-29T00:07:30;23.10;47.80
59533;DHT22;45351;53.596;10.000;2022-07-29T00:09:58;23.10;47.70
59533;DHT22;45351;53.596;10.000;2022-07-29T00:12:25;23.00;47.90
59533;DHT22;45351;53.596;10.000;2022-07-29T00:14:53;23.00;47.80
59533;DHT22;45351;53.596;10.000;2022-07-29T00:17:21;23.00;47.80
59533;DHT22;45351;53.596;10.000;2022-07-29T00:19:47;22.90;47.90
59533;DHT22;45351;53.596;10.000;2022-07-29T00:22:14;23.00;48.10
59533;DHT22;45351;53.596;10.000;2022-07-29T00:24:41;23.00;47.80
59533;DHT22;45351;53.596;10.000;2022-07-29T00:27:09;23.00;47.80
59533;DHT22;45351;53.596;10.000;2022-07-29T00:29:36;23.00;47.80
59533;DHT22;45351;53.596;10.000;2022-07-29T00:32:03;22.90;47.90
59533;DHT22;45351;53.596;10.000;2022-07-29T00:34:31;22.90;47.80
59533;DHT22;45351;53.596;10.000;2022-07-29T00:37:14;22.80;47.40
59533;DHT22;45351;53.596;10.000;2022-07-29T00:39:41;22.80;47.90
59533;DHT22;45351;53.596;10.000;2022-07-29T00:42:09;22.80;47.80
59533;DHT22;45351;53.596;10.000;2022-07-29T00:44:37;22.80;48.10
59533;DHT22;45351;53.596;10.000;2022-07-29T00:47:05;22.80;47.60
59533;DHT22;45351;53.596;10.000;2022-07-29T00:49:32;22.80;47.70
59533;DHT22;45351;53.596;10.000;2022-07-29T00:52:00;22.80;48.00
59533;DHT22;45351;53.596;10.000;2022-07-29T00:54:27;22.80;47.60
59533;DHT22;45351;53.596;10.000;2022-07-29T00:56:56;22.70;47.70
59533;DHT22;45351;53.596;10.000;2022-07-29T00:59:25;22.70;47.70
59533;DHT22;45351;53.596;10.000;2022-07-29T01:01:52;22.60;46.60
59533;DHT22;45351;53.596;10.000;2022-07-29T01:04:20;22.50;47.00
59533;DHT22;45351;53.596;10.000;2022-07-29T01:06:47;22.40;47.80
59533;DHT22;45351;53.596;10.000;2022-07-29T01:09:14;22.40;47.70
59533;DHT22;45351;53.596;10.000;2022-07-29T01:11:42;22.40;47.80
59533;DHT22;45351;53.596;10.000;2022-07-29T01:14:10;22.40;48.00
59533;DHT22;45351;53.596;10.000;2022-07-29T01:16:44;22.30;48.00
59533;DHT22;45351;53.596;10.000;2022-07-29T01:22:18;22.20;47.50
59533;DHT22;45351;53.596;10.000;2022-07-29T01:25:10;22.10;47.80
59533;DHT22;45351;53.596;10.000;2022-07-29T01:27:45;22.20;48.00
59533;DHT22;45351;53.596;10.000;2022-07-29T01:30:15;22.20;48.40
59533;DHT22;45351;53.596;10.000;2022-07-29T01:32:47;22.20;48.00
59533;DHT22;45351;53.596;10.000;2022-07-29T01:35:21;22.10;47.90
59533;DHT22;45351;53.596;10.000;2022-07-29T01:37:51;22.20;48.10
59533;DHT22;45351;53.596;10.000;2022-07-29T01:40:23;22.20;48.20
59533;DHT22;45351;53.596;10.000;2022-07-29T01:42:53;22.20;48.10
59533;DHT22;45351;53.596;10.000;2022-07-29T01:45:28;22.10;47.80
59533;DHT22;45351;53.596;10.000;2022-07-29T01:48:02;22.10;48.00
59533;DHT22;45351;53.596;10.000;2022-07-29T01:50:50;22.10;47.80
59533;DHT22;45351;53.596;10.000;2022-07-29T01:53:42;22.00;47.30
59533;DHT22;45351;53.596;10.000;2022-07-29T01:56:31;22.00;47.00
59533;DHT22;45351;53.596;10.000;2022-07-29T01:59:20;22.00;48.10
59533;DHT22;45351;53.596;10.000;2022-07-29T02:02:11;22.00;48.30
59533;DHT22;45351;53.596;10.000;2022-07-29T02:04:40;22.00;47.20
59533;DHT22;45351;53.596;10.000;2022-07-29T02:07:12;22.00;47.90
59533;DHT22;45351;53.596;10.000;2022-07-29T02:09:40;22.00;48.30
59533;DHT22;45351;53.596;10.000;2022-07-29T02:12:08;22.10;48.10
59533;DHT22;45351;53.596;10.000;2022-07-29T02:14:41;22.10;47.40
59533;DHT22;45351;53.596;10.000;2022-07-29T02:17:11;22.20;47.90
59533;DHT22;45351;53.596;10.000;2022-07-29T02:19:39;22.10;47.90
59533;DHT22;45351;53.596;10.000;2022-07-29T02:22:08;22.10;48.30
59533;DHT22;45351;53.596;10.000;2022-07-29T02:24:37;22.20;48.20
59533;DHT22;45351;53.596;10.000;2022-07-29T02:27:07;22.20;48.30
59533;DHT22;45351;53.596;10.000;2022-07-29T02:29:34;22.20;47.90
59533;DHT22;45351;53.596;10.000;2022-07-29T02:32:03;22.20;47.90
59533;DHT22;45351;53.596;10.000;2022-07-29T02:34:33;22.20;48.30
59533;DHT22;45351;53.596;10.000;2022-07-29T02:37:02;22.20;47.70
59533;DHT22;45351;53.596;10.000;2022-07-29T02:39:31;22.20;48.20
59533;DHT22;45351;53.596;10.000;2022-07-29T02:42:03;22.20;48.30
59533;DHT22;45351;53.596;10.000;2022-07-29T02:44:30;22.20;47.90
59533;DHT22;45351;53.596;10.000;2022-07-29T02:47:03;22.30;48.70
59533;DHT22;45351;53.596;10.000;2022-07-29T02:49:36;22.60;48.80
59533;DHT22;45351;53.596;10.000;2022-07-29T02:52:08;22.80;48.50
59533;DHT22;45351;53.596;10.000;2022-07-29T02:54:39;23.00;48.40
59533;DHT22;45351;53.596;10.000;2022-07-29T02:57:11;23.10;48.30
59533;DHT22;45351;53.596;10.000;2022-07-29T02:59:42;23.20;48.10
59533;DHT22;45351;53.596;10.000;2022-07-29T03:02:10;23.30;48.00
59533;DHT22;45351;53.596;10.000;2022-07-29T03:04:40;23.30;47.90
59533;DHT22;45351;53.596;10.000;2022-07-29T03:07:09;23.30;47.80
59533;DHT22;45351;53.596;10.000;2022-07-29T03:09:37;23.40;47.80
59533;DHT22;45351;53.596;10.000;2022-07-29T03:12:05;23.40;47.70
59533;DHT22;45351;53.596;10.000;2022-07-29T03:14:33;23.40;47.70
59533;DHT22;45351;53.596;10.000;2022-07-29T03:17:00;23.40;47.70
59533;DHT22;45351;53.596;10.000;2022-07-29T03:19:27;23.50;47.80
59533;DHT22;45351;53.596;10.000;2022-07-29T03:21:57;23.40;47.70
59533;DHT22;45351;53.596;10.000;2022-07-29T03:24:30;23.50;47.80
59533;DHT22;45351;53.596;10.000;2022-07-29T03:26:57;23.50;47.80
59533;DHT22;45351;53.596;10.000;2022-07-29T03:29:24;23.50;47.80
59533;DHT22;45351;53.596;10.000;2022-07-29T03:31:51;23.50;47.80
59533;DHT22;45351;53.596;10.000;2022-07-29T03:34:18;23.50;47.80
59533;DHT22;45351;53.596;10.000;2022-07-29T03:36:45;23.50;47.80
59533;DHT22;45351;53.596;10.000;2022-07-29T03:39:17;23.50;47.80
59533;DHT22;45351;53.596;10.000;2022-07-29T03:41:45;23.50;47.80
59533;DHT22;45351;53.596;10.000;2022-07-29T03:44:14;23.50;47.80
59533;DHT22;45351;53.596;10.000;2022-07-29T03:46:43;23.50;47.80
59533;DHT22;45351;53.596;10.000;2022-07-29T03:49:11;23.50;47.80
59533;DHT22;45351;53.596;10.000;2022-07-29T03:51:39;23.60;47.80
59533;DHT22;45351;53.596;10.000;2022-07-29T03:54:06;23.60;47.80
59533;DHT22;45351;53.596;10.000;2022-07-29T03:56:37;23.60;47.90
59533;DHT22;45351;53.596;10.000;2022-07-29T03:59:05;23.60;47.70
59533;DHT22;45351;53.596;10.000;2022-07-29T04:01:33;23.60;47.70
59533;DHT22;45351;53.596;10.000;2022-07-29T04:04:01;23.60;47.70
59533;DHT22;45351;53.596;10.000;2022-07-29T04:06:31;23.60;47.70
59533;DHT22;45351;53.596;10.000;2022-07-29T04:09:03;23.60;47.70
59533;DHT22;45351;53.596;10.000;2022-07-29T04:11:30;23.60;47.80
59533;DHT22;45351;53.596;10.000;2022-07-29T04:13:58;23.60;47.70
59533;DHT22;45351;53.596;10.000;2022-07-29T04:16:25;23.60;47.80
59533;DHT22;45351;53.596;10.000;2022-07-29T04:18:52;23.60;47.70
59533;DHT22;45351;53.596;10.000;2022-07-29T04:21:19;23.60;47.80
59533;DHT22;45351;53.596;10.000;2022-07-29T04:23:46;23.60;47.70
59533;DHT22;45351;53.596;10.000;2022-07-29T04:26:15;23.60;47.80
59533;DHT22;45351;53.596;10.000;2022-07-29T04:28:42;23.60;47.80
59533;DHT22;45351;53.596;10.000;2022-07-29T04:31:11;23.60;47.70
59533;DHT22;45351;53.596;10.000;2022-07-29T04:33:38;23.60;47.70
59533;DHT22;45351;53.596;10.000;2022-07-29T04:36:05;23.60;47.70
59533;DHT22;45351;53.596;10.000;2022-07-29T04:38:32;23.60;47.70
59533;DHT22;45351;53.596;10.000;2022-07-29T04:40:59;23.60;47.80
59533;DHT22;45351;53.596;10.000;2022-07-29T04:43:26;23.60;47.80
59533;DHT22;45351;53.596;10.000;2022-07-29T04:45:52;23.60;47.80
59533;DHT22;45351;53.596;10.000;2022-07-29T04:48:21;23.60;47.90
59533;DHT22;45351;53.596;10.000;2022-07-29T04:50:47;23.60;47.80
59533;DHT22;45351;53.596;10.000;2022-07-29T04:53:14;23.60;47.80
59533;DHT22;45351;53.596;10.000;2022-07-29T04:55:41;23.60;47.90
59533;DHT22;45351;53.596;10.000;2022-07-29T04:58:08;23.60;47.80
59533;DHT22;45351;53.596;10.000;2022-07-29T05:00:35;23.60;47.90
59533;DHT22;45351;53.596;10.000;2022-07-29T05:03:02;23.60;47.90
59533;DHT22;45351;53.596;10.000;2022-07-29T05:05:30;23.70;47.90
59533;DHT22;45351;53.596;10.000;2022-07-29T05:07:57;23.70;48.00
59533;DHT22;45351;53.596;10.000;2022-07-29T05:10:24;23.60;48.10
59533;DHT22;45351;53.596;10.000;2022-07-29T05:12:51;23.70;48.10
59533;DHT22;45351;53.596;10.000;2022-07-29T05:15:18;23.70;48.10
59533;DHT22;45351;53.596;10.000;2022-07-29T05:17:45;23.70;48.00
59533;DHT22;45351;53.596;10.000;2022-07-29T05:20:12;23.70;48.00
59533;DHT22;45351;53.596;10.000;2022-07-29T05:22:40;23.70;47.90
59533;DHT22;45351;53.596;10.000;2022-07-29T05:25:07;23.70;47.90
59533;DHT22;45351;53.596;10.000;2022-07-29T05:27:35;23.70;47.90
59533;DHT22;45351;53.596;10.000;2022-07-29T05:30:03;23.70;47.90
59533;DHT22;45351;53.596;10.000;2022-07-29T05:32:30;23.60;47.80
59533;DHT22;45351;53.596;10.000;2022-07-29T05:34:57;23.60;47.10
59533;DHT22;45351;53.596;10.000;2022-07-29T05:37:24;23.20;47.40
59533;DHT22;45351;53.596;10.000;2022-07-29T05:39:52;22.90;47.90
59533;DHT22;45351;53.596;10.000;2022-07-29T05:42:19;22.80;48.20
59533;DHT22;45351;53.596;10.000;2022-07-29T05:44:46;22.60;48.70
59533;DHT22;45351;53.596;10.000;2022-07-29T05:47:13;22.50;49.20
59533;DHT22;45351;53.596;10.000;2022-07-29T05:49:40;22.40;48.80
59533;DHT22;45351;53.596;10.000;2022-07-29T05:52:07;22.50;48.70
59533;DHT22;45351;53.596;10.000;2022-07-29T05:54:34;22.40;48.10
59533;DHT22;45351;53.596;10.000;2022-07-29T05:57:03;22.40;48.60
59533;DHT22;45351;53.596;10.000;2022-07-29T05:59:30;22.40;48.10
59533;DHT22;45351;53.596;10.000;2022-07-29T06:01:58;22.30;47.60
59533;DHT22;45351;53.596;10.000;2022-07-29T06:04:24;22.30;48.30
59533;DHT22;45351;53.596;10.000;2022-07-29T06:06:51;22.20;48.40
59533;DHT22;45351;53.596;10.000;2022-07-29T06:09:18;22.00;47.30
59533;DHT22;45351;53.596;10.000;2022-07-29T06:11:45;21.90;48.80
59533;DHT22;45351;53.596;10.000;2022-07-29T06:14:14;22.00;48.50
59533;DHT22;45351;53.596;10.000;2022-07-29T06:16:41;22.00;48.80
59533;DHT22;45351;53.596;10.000;2022-07-29T06:19:08;22.10;48.90
59533;DHT22;45351;53.596;10.000;2022-07-29T06:21:35;22.20;48.90
59533;DHT22;45351;53.596;10.000;2022-07-29T06:24:02;22.30;49.10
59533;DHT22;45351;53.596;10.000;2022-07-29T06:26:29;22.30;48.50
59533;DHT22;45351;53.596;10.000;2022-07-29T06:28:55;22.40;48.60
59533;DHT22;45351;53.596;10.000;2022-07-29T06:31:24;22.40;48.40
59533;DHT22;45351;53.596;10.000;2022-07-29T06:33:50;22.50;48.60
59533;DHT22;45351;53.596;10.000;2022-07-29T06:36:18;22.60;48.60
59533;DHT22;45351;53.596;10.000;2022-07-29T06:38:45;22.60;48.10
59533;DHT22;45351;53.596;10.000;2022-07-29T06:41:12;22.60;48.20
59533;DHT22;45351;53.596;10.000;2022-07-29T06:43:42;22.70;48.30
59533;DHT22;45351;53.596;10.000;2022-07-29T06:46:11;23.00;48.20
59533;DHT22;45351;53.596;10.000;2022-07-29T06:48:40;23.10;47.90
59533;DHT22;45351;53.596;10.000;2022-07-29T06:51:08;23.20;47.80
59533;DHT22;45351;53.596;10.000;2022-07-29T06:53:36;23.30;47.60
59533;DHT22;45351;53.596;10.000;2022-07-29T06:56:04;23.40;47.40
59533;DHT22;45351;53.596;10.000;2022-07-29T06:58:33;23.40;47.20
59533;DHT22;45351;53.596;10.000;2022-07-29T07:01:02;23.50;47.20
59533;DHT22;45351;53.596;10.000;2022-07-29T07:03:29;23.50;47.10
59533;DHT22;45351;53.596;10.000;2022-07-29T07:05:58;23.60;47.10
59533;DHT22;45351;53.596;10.000;2022-07-29T07:08:25;23.60;47.10
59533;DHT22;45351;53.596;10.000;2022-07-29T07:10:52;23.60;47.10
59533;DHT22;45351;53.596;10.000;2022-07-29T07:13:20;23.60;47.00
59533;DHT22;45351;53.596;10.000;2022-07-29T07:15:47;23.60;46.90
59533;DHT22;45351;53.596;10.000;2022-07-29T07:18:16;23.70;47.00
59533;DHT22;45351;53.596;10.000;2022-07-29T07:20:43;23.70;46.90
59533;DHT22;45351;53.596;10.000;2022-07-29T07:23:12;23.70;46.90
59533;DHT22;45351;53.596;10.000;2022-07-29T07:25:39;23.70;46.90
59533;DHT22;45351;53.596;10.000;2022-07-29T07:28:06;23.70;46.80
59533;DHT22;45351;53.596;10.000;2022-07-29T07:30:32;23.70;46.70
59533;DHT22;45351;53.596;10.000;2022-07-29T07:33:00;23.70;46.70
59533;DHT22;45351;53.596;10.000;2022-07-29T07:35:27;23.80;46.80
59533;DHT22;45351;53.596;10.000;2022-07-29T07:37:54;23.70;46.70
59533;DHT22;45351;53.596;10.000;2022-07-29T07:40:22;23.80;46.70
59533;DHT22;45351;53.596;10.000;2022-07-29T07:42:49;23.80;46.70
59533;DHT22;45351;53.596;10.000;2022-07-29T07:45:16;23.80;46.70
59533;DHT22;45351;53.596;10.000;2022-07-29T07:47:43;23.80;46.70
59533;DHT22;45351;53.596;10.000;2022-07-29T07:50:11;23.80;46.70
59533;DHT22;45351;53.596;10.000;2022-07-29T07:52:46;23.80;46.60
59533;DHT22;45351;53.596;10.000;2022-07-29T07:55:14;23.80;46.60
59533;DHT22;45351;53.596;10.000;2022-07-29T07:57:42;23.80;46.60
59533;DHT22;45351;53.596;10.000;2022-07-29T08:00:10;23.80;46.50
59533;DHT22;45351;53.596;10.000;2022-07-29T08:02:38;23.90;46.60
59533;DHT22;45351;53.596;10.000;2022-07-29T08:05:06;23.90;46.50
59533;DHT22;45351;53.596;10.000;2022-07-29T08:07:33;23.80;46.50
59533;DHT22;45351;53.596;10.000;2022-07-29T08:10:01;23.90;46.50
59533;DHT22;45351;53.596;10.000;2022-07-29T08:12:28;23.90;46.50
59533;DHT22;45351;53.596;10.000;2022-07-29T08:14:56;23.90;46.40
59533;DHT22;45351;53.596;10.000;2022-07-29T08:17:23;23.90;46.40
59533;DHT22;45351;53.596;10.000;2022-07-29T08:19:50;23.90;46.40
59533;DHT22;45351;53.596;10.000;2022-07-29T08:22:16;23.90;46.40
59533;DHT22;45351;53.596;10.000;2022-07-29T08:24:43;24.00;46.40
59533;DHT22;45351;53.596;10.000;2022-07-29T08:27:18;23.90;46.40
59533;DHT22;45351;53.596;10.000;2022-07-29T08:29:46;24.00;46.40
59533;DHT22;45351;53.596;10.000;2022-07-29T08:32:14;23.90;46.90
59533;DHT22;45351;53.596;10.000;2022-07-29T08:34:41;23.90;46.30
59533;DHT22;45351;53.596;10.000;2022-07-29T08:37:10;24.00;46.30
59533;DHT22;45351;53.596;10.000;2022-07-29T08:39:36;24.00;46.20
59533;DHT22;45351;53.596;10.000;2022-07-29T08:42:04;24.00;46.20
59533;DHT22;45351;53.596;10.000;2022-07-29T08:44:32;24.00;46.20
59533;DHT22;45351;53.596;10.000;2022-07-29T08:46:59;24.00;46.20
59533;DHT22;45351;53.596;10.000;2022-07-29T08:49:27;24.10;46.30
59533;DHT22;45351;53.596;10.000;2022-07-29T08:51:54;24.00;46.10
59533;DHT22;45351;53.596;10.000;2022-07-29T08:54:23;24.10;46.30
59533;DHT22;45351;53.596;10.000;2022-07-29T08:56:51;24.10;46.30
59533;DHT22;45351;53.596;10.000;2022-07-29T08:59:19;24.10;46.20
59533;DHT22;45351;53.596;10.000;2022-07-29T09:01:46;24.10;46.20
59533;DHT22;45351;53.596;10.000;2022-07-29T09:04:14;24.10;46.20
59533;DHT22;45351;53.596;10.000;2022-07-29T09:06:47;24.10;46.10
59533;DHT22;45351;53.596;10.000;2022-07-29T09:09:15;24.10;46.20
59533;DHT22;45351;53.596;10.000;2022-07-29T09:11:43;24.10;46.10
59533;DHT22;45351;53.596;10.000;2022-07-29T09:14:11;24.10;46.10
59533;DHT22;45351;53.596;10.000;2022-07-29T09:16:46;24.10;46.10
59533;DHT22;45351;53.596;10.000;2022-07-29T09:19:21;24.20;46.10
59533;DHT22;45351;53.596;10.000;2022-07-29T09:21:49;24.10;46.00
59533;DHT22;45351;53.596;10.000;2022-07-29T09:24:27;24.20;46.10
59533;DHT22;45351;53.596;10.000;2022-07-29T09:26:54;24.10;46.10
59533;DHT22;45351;53.596;10.000;2022-07-29T09:29:23;24.10;46.00
59533;DHT22;45351;53.596;10.000;2022-07-29T09:31:52;24.20;46.10
59533;DHT22;45351;53.596;10.000;2022-07-29T09:34:22;24.20;46.00
59533;DHT22;45351;53.596;10.000;2022-07-29T09:36:51;24.20;46.00
59533;DHT22;45351;53.596;10.000;2022-07-29T09:39:27;24.20;46.10
59533;DHT22;45351;53.596;10.000;2022-07-29T09:41:56;24.20;46.00
59533;DHT22;45351;53.596;10.000;2022-07-29T09:44:24;24.20;46.00
59533;DHT22;45351;53.596;10.000;2022-07-29T09:46:59;24.20;46.00
59533;DHT22;45351;53.596;10.000;2022-07-29T09:49:31;24.20;45.90
59533;DHT22;45351;53.596;10.000;2022-07-29T09:52:06;24.20;45.90
59533;DHT22;45351;53.596;10.000;2022-07-29T09:54:33;24.20;45.90
59533;DHT22;45351;53.596;10.000;2022-07-29T09:57:04;24.20;45.90
59533;DHT22;45351;53.596;10.000;2022-07-29T09:59:32;24.20;45.80
59533;DHT22;45351;53.596;10.000;2022-07-29T10:01:59;24.20;45.70
59533;DHT22;45351;53.596;10.000;2022-07-29T10:04:37;24.20;45.70
59533;DHT22;45351;53.596;10.000;2022-07-29T10:07:06;24.20;45.60
59533;DHT22;45351;53.596;10.000;2022-07-29T10:09:34;24.20;45.60
59533;DHT22;45351;53.596;10.000;2022-07-29T10:12:09;24.30;45.60
59533;DHT22;45351;53.596;10.000;2022-07-29T10:14:37;24.20;45.50
59533;DHT22;45351;53.596;10.000;2022-07-29T10:17:05;24.30;45.50
59533;DHT22;45351;53.596;10.000;2022-07-29T10:19:33;24.30;45.50
59533;DHT22;45351;53.596;10.000;2022-07-29T10:22:02;24.30;45.50
59533;DHT22;45351;53.596;10.000;2022-07-29T10:24:31;24.30;45.40
59533;DHT22;45351;53.596;10.000;2022-07-29T10:27:00;24.30;45.40
59533;DHT22;45351;53.596;10.000;2022-07-29T10:29:29;24.30;45.40
59533;DHT22;45351;53.596;10.000;2022-07-29T10:32:11;24.30;45.30
59533;DHT22;45351;53.596;10.000;2022-07-29T10:37:41;24.30;45.30
59533;DHT22;45351;53.596;10.000;2022-07-29T10:40:22;24.30;45.30
59533;DHT22;45351;53.596;10.000;2022-07-29T10:43:17;24.30;45.30
59533;DHT22;45351;53.596;10.000;2022-07-29T10:45:46;24.40;45.30
59533;DHT22;45351;53.596;10.000;2022-07-29T10:48:13;24.30;45.30
59533;DHT22;45351;53.596;10.000;2022-07-29T10:50:54;24.30;45.30
59533;DHT22;45351;53.596;10.000;2022-07-29T10:53:22;24.30;45.20
59533;DHT22;45351;53.596;10.000;2022-07-29T10:55:51;24.30;45.20
59533;DHT22;45351;53.596;10.000;2022-07-29T10:58:20;24.40;45.20
59533;DHT22;45351;53.596;10.000;2022-07-29T11:00:48;24.30;45.70
59533;DHT22;45351;53.596;10.000;2022-07-29T11:03:44;24.40;45.00
59533;DHT22;45351;53.596;10.000;2022-07-29T11:06:13;24.40;45.00
59533;DHT22;45351;53.596;10.000;2022-07-29T11:08:41;24.40;45.00
59533;DHT22;45351;53.596;10.000;2022-07-29T11:11:36;24.40;45.40
59533;DHT22;45351;53.596;10.000;2022-07-29T11:14:07;24.40;44.80
59533;DHT22;45351;53.596;10.000;2022-07-29T11:17:02;24.40;44.90
59533;DHT22;45351;53.596;10.000;2022-07-29T11:19:29;24.40;44.80
59533;DHT22;45351;53.596;10.000;2022-07-29T11:21:56;24.40;44.90
59533;DHT22;45351;53.596;10.000;2022-07-29T11:24:24;24.40;44.90
59533;DHT22;45351;53.596;10.000;2022-07-29T11:27:12;24.40;44.80
59533;DHT22;45351;53.596;10.000;2022-07-29T11:29:47;24.40;44.70
59533;DHT22;45351;53.596;10.000;2022-07-29T11:32:14;24.40;44.70
59533;DHT22;45351;53.596;10.000;2022-07-29T11:34:43;24.40;44.60
59533;DHT22;45351;53.596;10.000;2022-07-29T11:37:15;24.50;44.60
59533;DHT22;45351;53.596;10.000;2022-07-29T11:39:43;24.40;44.50
59533;DHT22;45351;53.596;10.000;2022-07-29T11:42:38;24.50;44.60
59533;DHT22;45351;53.596;10.000;2022-07-29T11:45:09;24.50;44.50
59533;DHT22;45351;53.596;10.000;2022-07-29T11:47:40;24.50;44.80
59533;DHT22;45351;53.596;10.000;2022-07-29T11:50:09;24.50;45.00
59533;DHT22;45351;53.596;10.000;2022-07-29T11:52:38;24.50;45.10
59533;DHT22;45351;53.596;10.000;2022-07-29T11:55:10;24.50;45.20
59533;DHT22;45351;53.596;10.000;2022-07-29T11:57:47;24.50;45.20
59533;DHT22;45351;53.596;10.000;2022-07-29T12:00:26;24.60;45.20
59533;DHT22;45351;53.596;10.000;2022-07-29T12:02:53;24.60;45.10
59533;DHT22;45351;53.596;10.000;2022-07-29T12:05:20;24.50;45.00
59533;DHT22;45351;53.596;10.000;2022-07-29T12:07:48;24.50;44.90
59533;DHT22;45351;53.596;10.000;2022-07-29T12:10:15;24.60;44.90
59533;DHT22;45351;53.596;10.000;2022-07-29T12:12:42;24.60;44.80
59533;DHT22;45351;53.596;10.000;2022-07-29T12:15:15;24.60;44.80
59533;DHT22;45351;53.596;10.000;2022-07-29T12:17:43;24.60;44.70
59533;DHT22;45351;53.596;10.000;2022-07-29T12:20:10;24.60;44.80
59533;DHT22;45351;53.596;10.000;2022-07-29T12:22:40;24.60;44.90
59533;DHT22;45351;53.596;10.000;2022-07-29T12:25:11;24.60;44.90
59533;DHT22;45351;53.596;10.000;2022-07-29T12:27:41;24.60;45.00
59533;DHT22;45351;53.596;10.000;2022-07-29T12:30:10;24.60;45.00
59533;DHT22;45351;53.596;10.000;2022-07-29T12:32:41;24.60;45.00
59533;DHT22;45351;53.596;10.000;2022-07-29T12:35:09;24.60;45.00
59533;DHT22;45351;53.596;10.000;2022-07-29T12:37:38;24.60;45.00
59533;DHT22;45351;53.596;10.000;2022-07-29T12:40:08;24.60;45.00
59533;DHT22;45351;53.596;10.000;2022-07-29T12:42:35;24.60;44.90
59533;DHT22;45351;53.596;10.000;2022-07-29T12:45:03;24.60;44.90
59533;DHT22;45351;53.596;10.000;2022-07-29T12:47:32;24.60;44.90
59533;DHT22;45351;53.596;10.000;2022-07-29T12:50:11;24.60;44.90
59533;DHT22;45351;53.596;10.000;2022-07-29T12:52:40;24.60;44.80
59533;DHT22;45351;53.596;10.000;2022-07-29T12:55:07;24.70;44.90
59533;DHT22;45351;53.596;10.000;2022-07-29T12:57:45;24.70;44.90
59533;DHT22;45351;53.596;10.000;2022-07-29T13:00:14;24.70;44.80
59533;DHT22;45351;53.596;10.000;2022-07-29T13:02:42;24.70;44.80
59533;DHT22;45351;53.596;10.000;2022-07-29T13:05:11;24.60;44.80
59533;DHT22;45351;53.596;10.000;2022-07-29T13:07:39;24.70;44.80
59533;DHT22;45351;53.596;10.000;2022-07-29T13:10:14;24.70;44.90
59533;DHT22;45351;53.596;10.000;2022-07-29T13:13:02;24.70;44.90
59533;DHT22;45351;53.596;10.000;2022-07-29T13:15:30;24.70;44.90
59533;DHT22;45351;53.596;10.000;2022-07-29T13:17:57;24.70;44.90
59533;DHT22;45351;53.596;10.000;2022-07-29T13:20:26;24.60;44.80
59533;DHT22;45351;53.596;10.000;2022-07-29T13:22:55;24.70;44.90
59533;DHT22;45351;53.596;10.000;2022-07-29T13:25:26;24.70;44.90
59533;DHT22;45351;53.596;10.000;2022-07-29T13:27:54;24.70;45.00
59533;DHT22;45351;53.596;10.000;2022-07-29T13:30:22;24.70;45.10
59533;DHT22;45351;53.596;10.000;2022-07-29T13:32:49;24.70;45.20
59533;DHT22;45351;53.596;10.000;2022-07-29T13:35:17;24.70;45.20
59533;DHT22;45351;53.596;10.000;2022-07-29T13:37:46;24.70;45.30
59533;DHT22;45351;53.596;10.000;2022-07-29T13:40:13;24.70;45.30
59533;DHT22;45351;53.596;10.000;2022-07-29T13:42:41;24.70;45.40
59533;DHT22;45351;53.596;10.000;2022-07-29T13:45:09;24.70;45.50
59533;DHT22;45351;53.596;10.000;2022-07-29T13:47:37;24.70;45.60
59533;DHT22;45351;53.596;10.000;2022-07-29T13:50:05;24.70;45.70
59533;DHT22;45351;53.596;10.000;2022-07-29T13:52:33;24.70;45.70
59533;DHT22;45351;53.596;10.000;2022-07-29T13:55:01;24.70;45.80
59533;DHT22;45351;53.596;10.000;2022-07-29T13:57:29;24.70;45.90
59533;DHT22;45351;53.596;10.000;2022-07-29T13:59:56;24.70;45.90
59533;DHT22;45351;53.596;10.000;2022-07-29T14:02:23;24.70;45.90
59533;DHT22;45351;53.596;10.000;2022-07-29T14:04:50;24.70;46.00
59533;DHT22;45351;53.596;10.000;2022-07-29T14:07:17;24.70;46.10
59533;DHT22;45351;53.596;10.000;2022-07-29T14:09:44;24.70;46.10
59533;DHT22;45351;53.596;10.000;2022-07-29T14:12:12;24.70;46.20
59533;DHT22;45351;53.596;10.000;2022-07-29T14:14:39;24.80;46.40
59533;DHT22;45351;53.596;10.000;2022-07-29T14:17:07;24.70;46.30
59533;DHT22;45351;53.596;10.000;2022-07-29T14:19:34;24.70;46.30
59533;DHT22;45351;53.596;10.000;2022-07-29T14:22:04;24.70;46.40
59533;DHT22;45351;53.596;10.000;2022-07-29T14:24:31;24.70;46.40
59533;DHT22;45351;53.596;10.000;2022-07-29T14:26:58;24.80;46.60
59533;DHT22;45351;53.596;10.000;2022-07-29T14:29:26;24.70;46.60
59533;DHT22;45351;53.596;10.000;2022-07-29T14:31:53;24.80;46.70
59533;DHT22;45351;53.596;10.000;2022-07-29T14:34:19;24.80;46.80
59533;DHT22;45351;53.596;10.000;2022-07-29T14:36:46;24.80;46.90
59533;DHT22;45351;53.596;10.000;2022-07-29T14:39:13;24.80;47.00
59533;DHT22;45351;53.596;10.000;2022-07-29T14:41:41;24.80;47.00
59533;DHT22;45351;53.596;10.000;2022-07-29T14:44:08;24.80;47.00
59533;DHT22;45351;53.596;10.000;2022-07-29T14:46:36;24.80;47.00
59533;DHT22;45351;53.596;10.000;2022-07-29T14:49:03;24.90;47.20
59533;DHT22;45351;53.596;10.000;2022-07-29T14:51:31;24.90;47.20
59533;DHT22;45351;53.596;10.000;2022-07-29T14:53:58;24.90;47.20
59533;DHT22;45351;53.596;10.000;2022-07-29T14:56:25;24.90;47.20
59533;DHT22;45351;53.596;10.000;2022-07-29T14:58:52;24.90;47.20
59533;DHT22;45351;53.596;10.000;2022-07-29T15:01:19;24.90;47.10
59533;DHT22;45351;53.596;10.000;2022-07-29T15:03:47;24.90;47.20
59533;DHT22;45351;53.596;10.000;2022-07-29T15:06:14;24.80;47.00
59533;DHT22;45351;53.596;10.000;2022-07-29T15:08:41;24.90;47.10
59533;DHT22;45351;53.596;10.000;2022-07-29T15:11:08;24.90;47.00
59533;DHT22;45351;53.596;10.000;2022-07-29T15:13:35;24.80;47.00
59533;DHT22;45351;53.596;10.000;2022-07-29T15:16:02;24.80;47.00
59533;DHT22;45351;53.596;10.000;2022-07-29T15:18:29;24.80;47.10
59533;DHT22;45351;53.596;10.000;2022-07-29T15:20:57;24.90;47.10
59533;DHT22;45351;53.596;10.000;2022-07-29T15:23:25;24.90;47.00
59533;DHT22;45351;53.596;10.000;2022-07-29T15:25:52;24.80;46.90
59533;DHT22;45351;53.596;10.000;2022-07-29T15:28:19;24.80;46.90
59533;DHT22;45351;53.596;10.000;2022-07-29T15:30:46;24.80;46.90
59533;DHT22;45351;53.596;10.000;2022-07-29T15:33:13;24.80;47.00